createdAt,value
2022-10-28T00:00:14.551Z,102019.59
2022-10-28T00:02:41.283Z,102007.56
2022-10-28T00:05:08.212Z,102008.63
2022-10-28T00:07:34.834Z,102008.94
2022-10-28T00:10:01.431Z,102011.13
2022-10-28T00:12:27.951Z,102011.41
2022-10-28T00:14:54.523Z,102010.91
2022-10-28T00:17:21.291Z,102012.78
2022-10-28T00:19:48.041Z,102001.56
2022-10-28T00:22:15.771Z,102008.00
2022-10-28T00:24:42.255Z,101998.38
2022-10-28T00:27:08.711Z,101995.97
2022-10-28T00:29:38.084Z,101989.81
2022-10-28T00:32:04.792Z,101990.38
2022-10-28T00:34:31.285Z,101987.19
2022-10-28T00:36:57.867Z,101983.72
2022-10-28T00:39:25.838Z,101988.59
2022-10-28T00:41:56.470Z,101995.00
2022-10-28T00:44:46.566Z,101999.59
2022-10-28T00:47:31.531Z,101987.56
2022-10-28T00:50:09.914Z,101980.31
2022-10-28T00:52:37.205Z,101983.28
2022-10-28T00:55:04.157Z,101967.50
2022-10-28T00:57:36.599Z,101966.69
2022-10-28T01:00:06.476Z,101967.78
2022-10-28T01:02:44.800Z,101966.22
2022-10-28T01:05:14.490Z,101963.03
2022-10-28T01:07:42.216Z,101957.97
2022-10-28T01:10:09.656Z,101958.75
2022-10-28T01:12:53.434Z,101959.03
2022-10-28T01:15:33.934Z,101952.09
2022-10-28T01:18:12.487Z,101953.97
2022-10-28T01:20:51.215Z,101955.31
2022-10-28T01:23:32.282Z,101953.47
2022-10-28T01:26:44.270Z,101953.75
2022-10-28T01:29:48.192Z,101950.56
2022-10-28T01:32:34.135Z,101950.56
2022-10-28T01:35:25.683Z,101957.00
2022-10-28T01:38:15.904Z,101946.28
2022-10-28T01:40:50.863Z,101945.78
2022-10-28T01:43:25.387Z,101947.66
2022-10-28T01:45:54.622Z,101947.66
2022-10-28T01:48:29.551Z,101943.41
2022-10-28T01:51:10.623Z,101939.41
2022-10-28T01:53:41.801Z,101938.59
2022-10-28T01:56:14.011Z,101936.22
2022-10-28T01:58:41.583Z,101927.66
2022-10-28T02:01:10.385Z,101923.41
2022-10-28T02:03:37.641Z,101929.03
2022-10-28T02:06:15.642Z,101925.84
2022-10-28T02:08:42.053Z,101926.97
2022-10-28T02:11:46.490Z,101927.75
2022-10-28T02:14:38.325Z,101918.09
2022-10-28T02:17:21.173Z,101913.06
2022-10-28T02:20:12.478Z,101918.69
2022-10-28T02:23:00.796Z,101915.22
2022-10-28T02:25:41.224Z,101909.38
2022-10-28T02:30:52.659Z,101914.22
2022-10-28T02:33:23.940Z,101907.56
2022-10-28T02:35:55.857Z,101912.09
2022-10-28T02:38:30.356Z,101904.06
2022-10-28T02:41:01.860Z,101909.72
2022-10-28T02:43:30.455Z,101903.56
2022-10-28T02:46:00.764Z,101900.38
2022-10-28T02:48:47.607Z,101899.84
2022-10-28T02:51:21.687Z,101900.66
2022-10-28T02:54:02.218Z,101894.81
2022-10-28T02:56:31.848Z,101904.19
2022-10-28T02:58:58.427Z,101904.19
2022-10-28T03:01:25.190Z,101908.25
2022-10-28T03:03:52.015Z,101902.06
2022-10-28T03:06:18.798Z,101899.66
2022-10-28T03:08:45.961Z,101900.78
2022-10-28T03:11:13.048Z,101899.16
2022-10-28T03:13:39.541Z,101898.66
2022-10-28T03:16:06.070Z,101890.91
2022-10-28T03:18:32.526Z,101893.88
2022-10-28T03:20:59.290Z,101891.75
2022-10-28T03:23:26.033Z,101887.22
2022-10-28T03:25:52.597Z,101892.88
2022-10-28T03:28:19.246Z,101902.78
2022-10-28T03:30:45.951Z,101895.81
2022-10-28T03:33:12.692Z,101904.13
2022-10-28T03:35:40.445Z,101897.19
2022-10-28T03:38:06.989Z,101894.78
2022-10-28T03:40:34.616Z,101884.94
2022-10-28T03:43:01.214Z,101889.28
2022-10-28T03:47:59.434Z,101878.06
2022-10-28T03:50:26.392Z,101869.53
2022-10-28T03:52:52.905Z,101868.22
2022-10-28T03:55:19.514Z,101866.63
2022-10-28T03:57:46.033Z,101860.75
2022-10-28T04:00:16.204Z,101860.75
2022-10-28T04:02:42.782Z,101852.47
2022-10-28T04:05:09.531Z,101857.28
2022-10-28T04:07:36.184Z,101853.84
2022-10-28T04:10:02.690Z,101859.97
2022-10-28T04:12:29.352Z,101865.31
2022-10-28T04:14:56.034Z,101862.13
2022-10-28T04:17:22.735Z,101857.06
2022-10-28T04:19:49.671Z,101857.34
2022-10-28T04:22:16.329Z,101865.34
2022-10-28T04:24:42.879Z,101868.34
2022-10-28T04:27:09.394Z,101865.94
2022-10-28T04:29:36.188Z,101869.72
2022-10-28T04:32:02.843Z,101876.13
2022-10-28T04:34:29.704Z,101871.88
2022-10-28T04:36:56.172Z,101875.63
2022-10-28T04:39:23.454Z,101867.59
2022-10-28T04:41:50.201Z,101867.59
2022-10-28T04:44:16.747Z,101866.81
2022-10-28T04:46:44.330Z,101872.44
2022-10-28T04:49:11.303Z,101866.00
2022-10-28T04:51:37.848Z,101867.09
2022-10-28T04:54:04.524Z,101864.13
2022-10-28T04:56:33.404Z,101869.47
2022-10-28T04:59:00.125Z,101862.53
2022-10-28T05:25:44.000Z,101841.72
2022-10-28T05:28:10.485Z,101836.38
2022-10-28T05:30:38.077Z,101838.25
2022-10-28T05:33:04.892Z,101850.00
2022-10-28T05:35:31.554Z,101839.31
2022-10-28T05:37:58.534Z,101846.28
2022-10-28T05:40:25.195Z,101842.50
2022-10-28T05:42:54.616Z,101838.53
2022-10-28T05:45:21.469Z,101842.78
2022-10-28T05:47:48.679Z,101842.00
2022-10-28T05:50:18.913Z,101837.72
2022-10-28T05:52:50.880Z,101843.09
2022-10-28T05:55:22.198Z,101842.25
2022-10-28T05:57:50.219Z,101839.31
2022-10-28T06:00:19.427Z,101828.88
2022-10-28T06:02:46.133Z,101838.00
2022-10-28T06:05:13.372Z,101847.59
2022-10-28T06:07:41.397Z,101843.34
2022-10-28T06:10:10.312Z,101852.44
2022-10-28T06:12:36.088Z,101851.66
2022-10-28T06:15:03.288Z,101845.53
2022-10-28T06:17:29.957Z,101845.53
2022-10-28T06:19:56.441Z,101853.81
2022-10-28T06:22:23.123Z,101852.25
2022-10-28T06:24:49.839Z,101851.16
2022-10-28T06:27:16.431Z,101839.66
2022-10-28T06:29:43.140Z,101850.63
2022-10-28T06:32:09.875Z,101857.88
2022-10-28T06:34:37.876Z,101863.72
2022-10-28T06:37:05.751Z,101856.22
2022-10-28T06:39:36.717Z,101861.22
2022-10-28T06:42:03.397Z,101869.72
2022-10-28T06:44:30.030Z,101864.03
2022-10-28T06:46:58.064Z,101864.47
2022-10-28T06:49:24.591Z,101863.03
2022-10-28T06:51:51.206Z,101866.97
2022-10-28T06:54:18.076Z,101870.88
2022-10-28T06:56:47.776Z,101876.69
2022-10-28T06:59:14.496Z,101879.53
2022-10-28T07:01:41.379Z,101870.06
2022-10-28T07:04:11.976Z,101865.16
2022-10-28T07:06:39.306Z,101867.19
2022-10-28T07:09:08.762Z,101859.56
2022-10-28T07:11:35.322Z,101876.34
2022-10-28T07:18:52.367Z,101860.56
2022-10-28T07:21:21.719Z,101862.06
2022-10-28T07:23:48.337Z,101860.91
2022-10-28T07:26:14.794Z,101870.75
2022-10-28T07:28:43.006Z,101876.81
2022-10-28T07:31:12.546Z,101877.53
2022-10-28T07:33:39.139Z,101874.47
2022-10-28T07:36:06.701Z,101875.47
2022-10-28T07:38:34.342Z,101878.59
2022-10-28T07:41:08.780Z,101879.59
2022-10-28T07:43:39.461Z,101869.84
2022-10-28T07:46:08.057Z,101875.94
2022-10-28T07:48:36.877Z,101867.00
2022-10-28T07:51:06.022Z,101874.97
2022-10-28T07:53:33.377Z,101880.72
2022-10-28T07:56:04.741Z,101888.41
2022-10-28T07:58:31.532Z,101891.75
2022-10-28T08:01:03.344Z,101895.16
2022-10-28T08:03:38.052Z,101901.72
2022-10-28T08:06:09.139Z,101898.34
2022-10-28T08:08:36.368Z,101897.66
2022-10-28T08:11:23.948Z,101897.81
2022-10-28T08:13:51.943Z,101886.38
2022-10-28T08:16:19.407Z,101892.16
2022-10-28T08:18:46.485Z,101889.56
2022-10-28T08:21:14.625Z,101892.59
2022-10-28T08:23:41.708Z,101892.03
2022-10-28T08:26:08.706Z,101889.22
2022-10-28T08:28:35.575Z,101891.84
2022-10-28T08:31:08.530Z,101895.38
2022-10-28T08:34:30.809Z,101892.47
2022-10-28T08:36:57.936Z,101896.31
2022-10-28T08:39:26.180Z,101894.19
2022-10-28T08:42:08.288Z,101892.97
2022-10-28T08:45:30.678Z,101898.25
2022-10-28T08:48:33.075Z,101895.94
2022-10-28T08:51:13.279Z,101898.09
2022-10-28T08:53:54.421Z,101896.03
2022-10-28T08:56:37.870Z,101896.88
2022-10-28T08:59:13.528Z,101876.78
2022-10-28T09:01:51.170Z,101877.72
2022-10-28T09:04:41.041Z,101881.47
2022-10-28T09:07:26.253Z,101891.50
2022-10-28T09:09:54.595Z,101879.59
2022-10-28T09:12:51.138Z,101883.56
2022-10-28T09:15:31.495Z,101888.66
2022-10-28T09:18:12.361Z,101894.25
2022-10-28T09:20:57.145Z,101894.13
2022-10-28T09:23:32.119Z,101885.91
2022-10-28T09:26:49.634Z,101878.94
2022-10-28T09:29:44.241Z,101881.19
2022-10-28T09:32:45.983Z,101882.91
2022-10-28T09:35:18.872Z,101878.19
2022-10-28T09:37:58.752Z,101882.97
2022-10-28T09:40:29.916Z,101888.19
2022-10-28T09:43:07.496Z,101892.03
2022-10-28T09:45:38.890Z,101889.81
2022-10-28T09:48:20.757Z,101886.16
2022-10-28T09:50:52.905Z,101883.28
2022-10-28T09:53:52.043Z,101894.84
2022-10-28T09:56:18.851Z,101885.97
2022-10-28T09:58:47.431Z,101878.25
2022-10-28T10:01:24.794Z,101888.53
2022-10-28T10:03:52.374Z,101887.09
2022-10-28T10:06:27.024Z,101887.09
2022-10-28T10:08:59.783Z,101893.44
2022-10-28T10:11:29.876Z,101894.56
2022-10-28T10:13:58.880Z,101888.50
2022-10-28T10:16:35.237Z,101888.97
2022-10-28T10:19:10.453Z,101884.22
2022-10-28T10:21:49.804Z,101883.56
2022-10-28T10:24:33.998Z,101880.25
2022-10-28T10:27:33.014Z,101868.66
2022-10-28T10:30:00.171Z,101857.38
2022-10-28T10:32:33.578Z,101868.44
2022-10-28T10:35:10.292Z,101860.34
2022-10-28T10:37:42.978Z,101859.22
2022-10-28T10:40:21.714Z,101874.31
2022-10-28T10:43:09.769Z,101866.22
2022-10-28T10:45:35.751Z,101860.31
2022-10-28T10:48:11.733Z,101856.00
2022-10-28T10:50:41.326Z,101852.63
2022-10-28T10:53:19.442Z,101849.78
2022-10-28T10:55:51.770Z,101847.19
2022-10-28T10:58:24.756Z,101864.47
2022-10-28T11:00:54.186Z,101860.94
2022-10-28T11:03:51.407Z,101861.06
2022-10-28T11:06:24.793Z,101874.06
2022-10-28T11:08:59.473Z,101859.56
2022-10-28T11:11:36.163Z,101853.38
2022-10-28T11:14:16.912Z,101861.94
2022-10-28T11:16:53.228Z,101853.47
2022-10-28T11:19:30.040Z,101851.34
2022-10-28T11:22:05.410Z,101863.75
2022-10-28T11:25:05.291Z,101843.06
2022-10-28T11:27:37.731Z,101853.06
2022-10-28T11:30:11.173Z,101856.97
2022-10-28T11:33:29.499Z,101862.72
2022-10-28T11:36:22.890Z,101846.03
2022-10-28T11:38:58.251Z,101850.72
2022-10-28T11:41:42.815Z,101862.78
2022-10-28T11:44:26.468Z,101856.72
2022-10-28T11:47:04.051Z,101856.84
2022-10-28T11:50:08.612Z,101879.50
2022-10-28T11:53:28.152Z,101868.38
2022-10-28T11:56:18.184Z,101868.16
2022-10-28T11:59:03.002Z,101861.66
2022-10-28T12:01:51.146Z,101867.28
2022-10-28T12:04:46.132Z,101879.50
2022-10-28T12:07:54.944Z,101883.09
2022-10-28T12:11:14.035Z,101872.56
2022-10-28T12:14:13.643Z,101863.31
2022-10-28T12:17:13.372Z,101876.63
2022-10-28T12:19:48.212Z,101872.47
2022-10-28T12:22:48.982Z,101878.44
2022-10-28T12:25:23.936Z,101863.13
2022-10-28T12:27:56.722Z,101863.56
2022-10-28T12:30:29.314Z,101865.16
2022-10-28T12:33:11.548Z,101872.97
2022-10-28T12:35:46.152Z,101882.47
2022-10-28T12:38:20.366Z,101890.22
2022-10-28T12:40:56.157Z,101884.28
2022-10-28T12:43:30.099Z,101871.53
2022-10-28T12:45:57.798Z,101875.03
2022-10-28T12:48:34.014Z,101876.03
2022-10-28T12:51:24.791Z,101878.63
2022-10-28T12:54:00.743Z,101878.16
2022-10-28T12:56:37.677Z,101881.66
2022-10-28T12:59:15.831Z,101891.81
2022-10-28T13:01:46.437Z,101903.19
2022-10-28T13:04:13.764Z,101908.59
2022-10-28T13:07:13.491Z,101902.97
2022-10-28T13:10:04.908Z,101927.66
2022-10-28T13:13:01.835Z,101929.13
2022-10-28T13:15:41.124Z,101935.66
2022-10-28T13:18:28.079Z,101925.41
2022-10-28T13:21:51.373Z,101925.31
2022-10-28T13:24:47.847Z,101931.38
2022-10-28T13:27:15.657Z,101936.00
2022-10-28T13:29:43.930Z,101932.16
2022-10-28T13:32:38.273Z,101926.09
2022-10-28T13:35:16.359Z,101941.09
2022-10-28T13:37:47.084Z,101926.25
2022-10-28T13:40:42.770Z,101949.53
2022-10-28T13:43:20.462Z,101944.56
2022-10-28T13:45:56.252Z,101937.75
2022-10-28T13:47:49.058Z,101857.81
2022-10-28T13:48:48.194Z,101938.53
2022-10-28T13:50:32.126Z,101859.38
2022-10-28T13:51:45.030Z,101942.66
2022-10-28T13:53:57.516Z,101858.22
2022-10-28T13:54:26.133Z,101943.78
2022-10-28T13:56:53.267Z,101943.31
2022-10-28T13:56:55.323Z,101860.84
2022-10-28T13:59:29.541Z,101941.25
2022-10-28T14:02:33.879Z,101946.31
2022-10-28T14:05:05.912Z,101948.13
2022-10-28T14:07:35.861Z,101960.03
2022-10-28T14:10:22.761Z,101975.50
2022-10-28T14:12:59.000Z,101976.88
2022-10-28T14:15:32.603Z,101981.59
2022-10-28T14:18:10.349Z,101981.22
2022-10-28T14:20:49.430Z,101981.13
2022-10-28T14:23:27.258Z,101982.81
2022-10-28T14:25:54.851Z,101989.56
2022-10-28T14:28:51.075Z,101979.88
2022-10-28T14:31:32.880Z,101975.56
2022-10-28T14:33:59.401Z,101963.09
2022-10-28T14:36:52.770Z,101978.09
2022-10-28T14:39:44.106Z,101969.97
2022-10-28T14:45:33.089Z,101973.66
2022-10-28T14:48:31.586Z,101980.53
2022-10-28T14:51:02.157Z,101987.41
2022-10-28T14:53:36.137Z,102000.91
2022-10-28T14:56:18.637Z,102005.53
2022-10-28T14:58:45.915Z,102008.88
2022-10-28T15:01:24.089Z,102006.50
2022-10-28T15:03:58.330Z,102003.03
2022-10-28T15:06:26.070Z,101997.00
2022-10-28T15:08:54.484Z,102004.00
2022-10-28T15:11:22.189Z,102002.78
2022-10-28T15:13:52.891Z,102004.66
2022-10-28T15:16:25.634Z,102005.34
2022-10-28T15:18:54.390Z,102001.84
2022-10-28T15:21:22.698Z,102006.44
2022-10-28T15:24:00.713Z,102010.28
2022-10-28T15:26:30.526Z,102019.84
2022-10-28T15:28:57.343Z,102019.84
2022-10-28T15:31:24.104Z,102029.72
2022-10-28T15:33:50.733Z,102032.44
2022-10-28T15:36:24.804Z,102039.63
2022-10-28T15:39:18.897Z,102040.25
2022-10-28T15:41:49.590Z,102040.25
2022-10-28T15:44:45.784Z,102038.53
2022-10-28T15:47:28.879Z,102043.00
2022-10-28T15:50:20.572Z,102040.63
2022-10-28T15:52:53.641Z,102037.81
2022-10-28T15:55:35.615Z,102036.22
2022-10-28T15:58:31.267Z,102045.09
2022-10-28T16:00:58.812Z,102054.97
2022-10-28T16:03:40.692Z,102050.25
2022-10-28T16:06:28.171Z,102050.44
2022-10-28T16:09:18.953Z,102049.31
2022-10-28T16:11:50.304Z,102063.13
2022-10-28T16:14:42.119Z,102060.31
2022-10-28T16:17:18.391Z,102068.69
2022-10-28T16:19:53.482Z,102063.63
2022-10-28T16:22:22.395Z,102068.53
2022-10-28T16:24:50.933Z,102076.50
2022-10-28T16:27:28.861Z,102093.38
2022-10-28T16:29:55.647Z,102098.94
2022-10-28T16:32:28.749Z,102100.38
2022-10-28T16:35:01.616Z,102108.94
2022-10-28T16:37:30.681Z,102112.44
2022-10-28T16:40:00.599Z,102116.75
2022-10-28T16:42:27.691Z,102112.13
2022-10-28T16:44:54.235Z,102115.63
2022-10-28T16:47:23.050Z,102114.81
2022-10-28T16:49:54.109Z,102116.75
2022-10-28T16:52:26.846Z,102118.66
2022-10-28T16:54:53.535Z,102114.19
2022-10-28T16:57:21.429Z,102128.06
2022-10-28T16:59:48.451Z,102133.44
2022-10-28T17:02:33.773Z,102136.16
2022-10-28T17:05:00.932Z,102133.09
2022-10-28T17:07:28.719Z,102135.03
2022-10-28T17:09:55.687Z,102129.16
2022-10-28T17:12:24.596Z,102134.06
2022-10-28T17:14:52.063Z,102134.06
2022-10-28T17:17:18.961Z,102130.44
2022-10-28T17:19:46.560Z,102140.63
2022-10-28T17:22:13.975Z,102138.56
2022-10-28T17:24:41.798Z,102140.31
2022-10-28T17:27:08.516Z,102143.97
2022-10-28T17:29:37.864Z,102150.47
2022-10-28T17:32:06.918Z,102150.81
2022-10-28T17:34:33.462Z,102157.13
2022-10-28T17:37:02.226Z,102171.59
2022-10-28T17:39:29.071Z,102170.34
2022-10-28T17:41:55.530Z,102173.69
2022-10-28T17:44:22.267Z,102181.44
2022-10-28T17:46:52.119Z,102179.09
2022-10-28T17:49:19.305Z,102183.66
2022-10-28T17:51:46.043Z,102195.28
2022-10-28T17:54:12.718Z,102188.94
2022-10-28T17:56:42.143Z,102195.13
2022-10-28T17:59:09.307Z,102181.94
2022-10-28T18:01:36.544Z,102197.94
2022-10-28T18:04:23.770Z,102203.22
2022-10-28T18:06:50.379Z,102209.88
2022-10-28T18:09:17.108Z,102193.19
2022-10-28T18:11:43.575Z,102201.59
2022-10-28T18:14:10.337Z,102202.53
2022-10-28T18:16:37.419Z,102201.88
2022-10-28T18:19:06.045Z,102210.25
2022-10-28T18:21:35.325Z,102217.88
2022-10-28T18:24:04.965Z,102220.09
2022-10-28T18:26:36.434Z,102225.34
2022-10-28T18:29:07.278Z,102226.25
2022-10-28T18:31:34.673Z,102233.72
2022-10-28T18:34:02.287Z,102247.19
2022-10-28T18:36:34.554Z,102255.69
2022-10-28T18:39:03.305Z,102261.53
2022-10-28T18:41:31.861Z,102259.47
2022-10-28T18:44:00.474Z,102265.47
2022-10-28T18:46:28.811Z,102259.97
2022-10-28T18:48:57.040Z,102249.97
2022-10-28T18:51:24.073Z,102238.06
2022-10-28T18:53:52.022Z,102236.31
2022-10-28T18:56:21.344Z,102237.53
2022-10-28T18:58:51.380Z,102239.63
2022-10-28T19:01:21.459Z,102243.59
2022-10-28T19:03:52.935Z,102250.41
2022-10-28T19:06:20.465Z,102252.75
2022-10-28T19:08:53.024Z,102262.56
2022-10-28T19:11:20.523Z,102266.38
2022-10-28T19:13:47.910Z,102262.56
2022-10-28T19:16:14.943Z,102268.09
2022-10-28T19:18:42.292Z,102268.53
2022-10-28T19:21:13.041Z,102268.34
2022-10-28T19:23:40.736Z,102272.31
2022-10-28T19:26:11.317Z,102273.44
2022-10-28T19:28:39.523Z,102264.38
2022-10-28T19:31:09.872Z,102264.47
2022-10-28T19:33:38.425Z,102270.13
2022-10-28T19:36:14.467Z,102281.25
2022-10-28T19:38:41.283Z,102276.47
2022-10-28T19:41:13.730Z,102279.28
2022-10-28T19:43:41.419Z,102276.22
2022-10-28T19:46:13.481Z,102281.81
2022-10-28T19:48:42.044Z,102284.03
2022-10-28T19:51:11.953Z,102282.56
2022-10-28T19:53:38.676Z,102283.38
2022-10-28T19:56:06.161Z,102296.50
2022-10-28T19:58:33.015Z,102309.81
2022-10-28T20:01:05.402Z,102308.53
2022-10-28T20:03:34.587Z,102304.53
2022-10-28T20:06:11.261Z,102305.72
2022-10-28T20:08:46.386Z,102311.75
2022-10-28T20:11:24.833Z,102316.22
2022-10-28T20:13:56.887Z,102322.81
2022-10-28T20:16:25.093Z,102312.28
2022-10-28T20:18:51.780Z,102316.47
2022-10-28T20:21:22.322Z,102330.38
2022-10-28T20:26:18.287Z,102327.78
2022-10-28T20:28:45.065Z,102328.19
2022-10-28T20:31:16.281Z,102330.78
2022-10-28T20:33:44.855Z,102327.16
2022-10-28T20:36:32.326Z,102330.84
2022-10-28T20:39:02.940Z,102346.63
2022-10-28T20:41:34.496Z,102348.97
2022-10-28T20:44:02.679Z,102339.41
2022-10-28T20:46:29.743Z,102338.44
2022-10-28T20:48:57.769Z,102347.94
2022-10-28T20:51:26.151Z,102339.38
2022-10-28T20:53:55.253Z,102348.00
2022-10-28T20:56:36.463Z,102349.69
2022-10-28T20:59:04.516Z,102353.03
2022-10-28T21:01:35.560Z,102357.38
2022-10-28T21:04:04.862Z,102348.38
2022-10-28T21:06:31.827Z,102348.22
2022-10-28T21:08:59.011Z,102345.31
2022-10-28T21:11:26.902Z,102347.50
2022-10-28T21:13:56.557Z,102355.81
2022-10-28T21:16:23.844Z,102350.25
2022-10-28T21:18:50.843Z,102359.16
2022-10-28T21:21:18.519Z,102354.13
2022-10-28T21:23:45.524Z,102352.03
2022-10-28T21:26:13.265Z,102349.13
2022-10-28T21:28:46.215Z,102348.69
2022-10-28T21:52:33.737Z,102352.94
2022-10-28T21:55:05.976Z,102359.94
2022-10-28T21:57:41.621Z,102361.88
2022-10-28T22:00:08.917Z,102357.91
2022-10-28T22:02:35.579Z,102356.84
2022-10-28T22:05:02.096Z,102361.19
2022-10-28T22:07:28.701Z,102364.69
2022-10-28T22:09:57.351Z,102366.31
2022-10-28T22:12:24.284Z,102370.38
2022-10-28T22:14:51.021Z,102367.97
2022-10-28T22:17:17.736Z,102375.78
2022-10-28T22:19:45.665Z,102373.63
2022-10-28T22:22:13.669Z,102377.44
2022-10-28T22:24:40.267Z,102382.56
2022-10-28T22:27:06.729Z,102394.09
2022-10-28T22:29:33.381Z,102393.31
2022-10-28T22:32:00.042Z,102393.56
2022-10-28T22:34:26.519Z,102396.28
2022-10-28T22:36:53.149Z,102395.50
2022-10-28T22:39:19.789Z,102395.50
2022-10-28T22:41:46.295Z,102400.84
2022-10-28T22:44:12.913Z,102396.03
2022-10-28T22:46:40.751Z,102397.41
2022-10-28T22:49:07.371Z,102395.50
2022-10-28T22:51:34.057Z,102400.34
2022-10-28T22:54:00.651Z,102395.81
2022-10-28T22:56:27.794Z,102399.56
2022-10-28T22:59:01.802Z,102400.41
2022-10-28T23:01:29.771Z,102402.84
2022-10-28T23:03:56.709Z,102391.63
2022-10-28T23:06:26.171Z,102397.50
2022-10-28T23:08:53.247Z,102393.78
2022-10-28T23:11:20.903Z,102389.50
2022-10-28T23:13:51.460Z,102397.53
2022-10-28T23:16:18.270Z,102396.19
2022-10-28T23:18:45.338Z,102397.25
2022-10-28T23:21:20.929Z,102394.31
2022-10-28T23:23:51.294Z,102389.53
2022-10-28T23:26:21.133Z,102385.75
2022-10-28T23:28:52.666Z,102383.34
2022-10-28T23:31:19.620Z,102374.00
2022-10-28T23:33:46.545Z,102378.31
2022-10-28T23:36:14.907Z,102381.28
2022-10-28T23:38:41.602Z,102384.22
2022-10-28T23:41:10.743Z,102382.06
